Aeroporto :
LOGIN :

Iscrizione | Disclaimer

   EN    FR    IT 

 










Sommario :    VFR   VFR Marginale   IFR   IFR Intensivo   IFR Molto Intensivo
Visibilità : 
Base nubi : 
>= 8 km
>= 3000ft
5 / 8 km
1000 / 3000 ft
1500m / 5 km
500 / 1000 ft
800 / 1500m
200 / 500 ft
< 800m
< 200 ft
Simboli :   Temporali  Nebbia  Neve Forte  Precipitazioni Forti  Vento > 20 kt
SIGMETs :   Varie  Temporali  Ghiacco  Turbolenza  Onda orograficha  Ceneri Vulcaniche







- Altitudine del aeroporto : 505 ft
- Codice IATA : SXB
- Carte del aeroporto


LFST - Strasbourg

ULTIMO METAR :
  • 211630Z AUTO 17005KT 140V200 CAVOK 22/17 Q1013 TEMPO FEW035CB

METARs OBSOLETI :
  • 211600Z AUTO 15005KT 100V190 9999 FEW046/// BKN096/// BKN190/// ///CB 22/18 Q1013 NOSIG
  • 211530Z AUTO 13004KT 090V160 9999 FEW017/// BKN100/// BKN210/// ///CB 22/18 Q1013 NOSIG
  • 211500Z AUTO 15004KT 110V190 9999 FEW020/// BKN100/// ///CB 22/18 Q1013 NOSIG
  • 211430Z AUTO 10003KT 070V170 9999 ///CB 22/18 Q1013 NOSIG
  • 211400Z AUTO VRB03KT 9999 FEW011/// SCT076/// BKN100/// ///TCU 22/19 Q1013 TEMPO FEW035CB

TAF AMD TAF LFST
Valido dal 21 a 12 ore il 22 a 12 ore UTC


211229Z 2112/2212 20008KT 9999 FEW020 BKN050 BKN100
TEMPO 2112/2121 -SHRA FEW035CB
PROB30
TEMPO 2201/2207 1500 BCFG
BECMG 2208/2211 FEW030CB BKN043
PROB40
TEMPO 2209/2212 4500 SHRA
Nessun NOTAM noto per questo aeroporto.



MetMap, La meteo Aeronautica in un colpo d'occhio ! - Copyright ORBIFLY Dicembre 2007 - Disclaimer

ORBIFLY MET'MAP TEAM :

Programmazione e sviluppo : Alexandra Zaïnal
Concezione e sviluppo : Baudouin d'Aumeries
Co-Programmazione e sviluppo : Marc-Olivier Méhu
Supporto tecnico e logistico : Manuel Goepfert
Aiuto per la traduzione : Arnaldo La Scala

Contatto : metmap@orbifly.com




FONTI E CREDITI :

   NOAA